Home > Products > Valid Products > TAF

000
FTUS46 KSEW 220200 AAB
TAFSEA
TAF AMD
KSEA 220218Z 2202/2306 19008KT P6SM SCT015 SCT090 OVC150
      TEMPO 2202/2206 BKN015 OVC090
     FM220600 16007KT P6SM BKN018 OVC025
     FM222000 15005KT P6SM BKN045 BKN120
     FM230000 12005KT P6SM SCT045 BKN100=



000
FTUS46 KSEW 220200 AAB
TAFSEA
TAF AMD
KSEA 220218Z 2202/2306 19008KT P6SM SCT015 SCT090 OVC150
      TEMPO 2202/2206 BKN015 OVC090
     FM220600 16007KT P6SM BKN018 OVC025
     FM222000 15005KT P6SM BKN045 BKN120
     FM230000 12005KT P6SM SCT045 BKN100=



000
FTUS46 KSEW 220100 AAA
TAFOLM
TAF AMD
KOLM 220135Z 2202/2224 22006KT P6SM BKN090 OVC150
     FM220500 22006KT 4SM BR BKN015 BKN030
     FM220900 19004KT 3SM BR OVC009
      TEMPO 2212/2216 00000KT 1SM BR OVC004
     FM221900 19005KT 4SM BR BKN012 OVC025
     FM222100 19005KT P6SM BKN025=



000
FTUS46 KSEW 220100 AAA
TAFOLM
TAF AMD
KOLM 220135Z 2202/2224 22006KT P6SM BKN090 OVC150
     FM220500 22006KT 4SM BR BKN015 BKN030
     FM220900 19004KT 3SM BR OVC009
      TEMPO 2212/2216 00000KT 1SM BR OVC004
     FM221900 19005KT 4SM BR BKN012 OVC025
     FM222100 19005KT P6SM BKN025=



000
FTUS46 KSEW 220100 AAA
TAFCLM
TAF AMD
KCLM 220134Z 2202/2224 26008KT P6SM SCT090 OVC150
     FM221200 25010KT P6SM OVC030
     FM221800 27008KT P6SM SCT030 SCT100=



000
FTUS46 KSEW 220100 AAA
TAFCLM
TAF AMD
KCLM 220134Z 2202/2224 26008KT P6SM SCT090 OVC150
     FM221200 25010KT P6SM OVC030
     FM221800 27008KT P6SM SCT030 SCT100=



000
FTUS46 KSEW 220100 AAA
TAFBLI
TAF AMD
KBLI 220133Z 2202/2224 17008KT P6SM SCT090 OVC150
     FM220600 17005KT P6SM OVC020
     FM221800 VRB04KT P6SM BKN030
     FM222100 VRB04KT P6SM SCT030 SCT045=



000
FTUS46 KSEW 220100 AAA
TAFPAE
TAF AMD
KPAE 220133Z 2202/2224 VRB05KT P6SM SCT090 OVC150
     FM220600 27005KT P6SM OVC022
     FM220800 19007KT P6SM OVC015
     FM221800 20004KT P6SM BKN025
     FM222000 20006KT P6SM BKN040 BKN100=



000
FTUS46 KSEW 220100 AAA
TAFBLI
TAF AMD
KBLI 220133Z 2202/2224 17008KT P6SM SCT090 OVC150
     FM220600 17005KT P6SM OVC020
     FM221800 VRB04KT P6SM BKN030
     FM222100 VRB04KT P6SM SCT030 SCT045=



000
FTUS46 KSEW 220100 AAA
TAFPAE
TAF AMD
KPAE 220133Z 2202/2224 VRB05KT P6SM SCT090 OVC150
     FM220600 27005KT P6SM OVC022
     FM220800 19007KT P6SM OVC015
     FM221800 20004KT P6SM BKN025
     FM222000 20006KT P6SM BKN040 BKN100=



000
FTUS46 KSEW 220100 AAA
TAFHQM
TAF AMD
KHQM 220132Z 2202/2224 23008KT 4SM BR FEW022 OVC150
     FM221000 VRB04KT P6SM OVC015
     FM221800 08005KT P6SM OVC020
     FM222000 08007KT P6SM SCT025 BKN120=



000
FTUS46 KSEW 220100 AAA
TAFHQM
TAF AMD
KHQM 220132Z 2202/2224 23008KT 4SM BR FEW022 OVC150
     FM221000 VRB04KT P6SM OVC015
     FM221800 08005KT P6SM OVC020
     FM222000 08007KT P6SM SCT025 BKN120=



000
FTUS46 KSEW 220100 AAA
TAFBFI
TAF AMD
KBFI 220131Z 2202/2224 17005KT P6SM SCT020 BKN090 OVC150
     FM220300 17005KT P6SM SCT020 SCT090 OVC150
      TEMPO 2203/2206 BKN020 OVC090
     FM220600 16007KT P6SM OVC020
     FM222000 15005KT P6SM BKN045 BKN100=



000
FTUS46 KSEW 220100 AAA
TAFBFI
TAF AMD
KBFI 220131Z 2202/2224 17005KT P6SM SCT020 BKN090 OVC150
     FM220300 17005KT P6SM SCT020 SCT090 OVC150
      TEMPO 2203/2206 BKN020 OVC090
     FM220600 16007KT P6SM OVC020
     FM222000 15005KT P6SM BKN045 BKN100=



000
FTUS46 KSEW 220100 AAA
TAFSEA
TAF AMD
KSEA 220129Z 2201/2306 19008KT P6SM FEW015 SCT090 OVC150
     FM220600 16007KT P6SM BKN018 OVC025
     FM222000 15005KT P6SM BKN045 BKN120
     FM230000 12005KT P6SM SCT045 BKN100=



000
FTUS46 KSEW 220100 AAA
TAFSEA
TAF AMD
KSEA 220129Z 2201/2306 19008KT P6SM FEW015 SCT090 OVC150
     FM220600 16007KT P6SM BKN018 OVC025
     FM222000 15005KT P6SM BKN045 BKN120
     FM230000 12005KT P6SM SCT045 BKN100=



000
FTUS46 KSEW 212300
TAFBFI
TAF
KBFI 212324Z 2200/2224 23008KT P6SM BKN025 OVC050
     FM220200 24010KT P6SM OVC022
     FM220600 16007KT P6SM OVC020
     FM222000 15005KT P6SM BKN045 BKN100=



000
FTUS46 KSEW 212300
TAFBLI
TAF
KBLI 212324Z 2200/2224 18008KT P6SM SCT020 BKN035
     FM220600 17005KT P6SM OVC020
     FM221800 VRB04KT P6SM BKN030
     FM222100 VRB04KT P6SM SCT030 SCT045=



000
FTUS46 KSEW 212300
TAFCLM
TAF
KCLM 212324Z 2200/2224 24010KT P6SM VCSH SCT035 BKN050
     FM220200 24010KT P6SM BKN035 OVC060
     FM221200 25010KT P6SM OVC030
     FM221800 27008KT P6SM SCT030 SCT100=



000
FTUS46 KSEW 212300
TAFOLM
TAF
KOLM 212324Z 2200/2224 22010KT 5SM -SHRA BR SCT022 OVC035
     FM220200 24010KT 5SM -SHRA SCT015 BKN030
     FM220500 22006KT 4SM BR BKN015 BKN030
     FM220900 19004KT 3SM BR OVC009
      TEMPO 2212/2216 00000KT 1SM BR OVC004
     FM221900 19005KT 4SM BR BKN012 OVC025
     FM222100 19005KT P6SM BKN025=



000
FTUS46 KSEW 212300
TAFPAE
TAF
KPAE 212324Z 2200/2224 21008KT P6SM SCT015 BKN045 BKN100
     FM220600 27005KT P6SM OVC022
     FM220800 19007KT P6SM OVC015
     FM221800 20004KT P6SM BKN025
     FM222000 20006KT P6SM BKN040 BKN100=



000
FTUS46 KSEW 212300
TAFSEA
TAF
KSEA 212324Z 2200/2306 23010G20KT P6SM SCT018 BKN025 OVC050
     FM220200 24010KT P6SM SCT018 OVC025
     FM220600 16007KT P6SM BKN018 OVC025
     FM222000 15005KT P6SM BKN045 BKN120
     FM230000 12005KT P6SM SCT045 BKN100=



000
FTUS46 KSEW 212300
TAFHQM
TAF
KHQM 212324Z 2200/2224 24015KT 4SM BR BKN022 BKN035
     FM221000 VRB04KT P6SM OVC015
     FM221800 08005KT P6SM OVC020
     FM222000 08007KT P6SM SCT025 BKN120=



000
FTUS46 KSEW 212300 AAB
TAFSEA
TAF AMD
KSEA 212303Z 2123/2224 21012G20KT P6SM SCT025 BKN090
      TEMPO 2200/2204 BKN025 BKN090
     FM220400 19010KT P6SM SCT018 BKN025 OVC050
     FM220800 16007KT P6SM BKN018 OVC045
     FM222000 15005KT P6SM BKN045=



000
FTUS46 KSEW 212100 AAA
TAFHQM
TAF AMD
KHQM 212105Z 2121/2218 24015KT P6SM BKN022 BKN035
     FM220400 26008KT P6SM OVC020
     FM221200 VRB04KT P6SM OVC020
     FM221700 08005KT P6SM OVC020=



000
FTUS46 KSEW 212100 CCA
TAFBFI
TAF COR
KBFI 212104Z 2121/2218 20009KT P6SM BKN022 BKN050 BKN100
     FM220800 16005KT P6SM BKN020 OVC035=



000
FTUS46 KSEW 212100 AAA
TAFBFI
TAF AMD
KBFI 212103Z 2121/2218 18010KT P6SM BKN022 BKN050 BKN100
     FM220800 16005KT P6SM BKN020 OVC035=



000
FTUS46 KSEW 212100 AAA
TAFSEA
TAF AMD
KSEA 212102Z 2121/2224 21012G20KT P6SM BKN018 BKN045 BKN100
     FM220000 19010KT P6SM SCT018 BKN025 OVC050
     FM220800 16007KT P6SM BKN018 OVC045
     FM222000 15005KT P6SM BKN045=



000
FTUS46 KSEW 211700
TAFPAE
TAF
KPAE 211724Z 2118/2218 31005KT P6SM SCT021 BKN050
      TEMPO 2118/2121 5SM -SHRA BR BKN021 OVC050
     FM220000 19008KT P6SM SCT020 OVC045
     FM220800 18005KT P6SM OVC020=



000
FTUS46 KSEW 211700
TAFBLI
TAF
KBLI 211724Z 2118/2218 19008KT P6SM SCT035 BKN060
      TEMPO 2119/2123 -SHRA BKN035 OVC060
     FM212300 20008KT P6SM BKN035
     FM220700 17005KT P6SM OVC020=



000
FTUS46 KSEW 211700
TAFCLM
TAF
KCLM 211724Z 2118/2218 26010KT P6SM -SHRA SCT035 BKN050
     FM220100 26008KT P6SM BKN030 OVC060
     FM220400 24005KT P6SM SCT030=



000
FTUS46 KSEW 211700
TAFSEA
TAF
KSEA 211724Z 2118/2224 21014G22KT P6SM SCT014 BKN045 BKN100
      TEMPO 2118/2120 BKN014 BKN025 BKN100
     FM220200 19010KT P6SM OVC050
     FM220800 16007KT P6SM BKN020 OVC045
     FM222000 15005KT P6SM BKN045=



000
FTUS46 KSEW 211700
TAFHQM
TAF
KHQM 211724Z 2118/2218 26012KT P6SM SCT020 BKN035
      TEMPO 2118/2121 4SM -SHRA BR OVC020
     FM220600 28005KT P6SM OVC020
     FM221200 VRB04KT P6SM OVC020
     FM221700 08005KT P6SM OVC020=



000
FTUS46 KSEW 211700
TAFOLM
TAF
KOLM 211724Z 2118/2218 22010KT 5SM -SHRA BR SCT022 OVC035
      TEMPO 2118/2121 4SM -SHRA BR OVC022
     FM220200 24010KT P6SM SCT018 BKN040
     FM220400 24007KT P6SM BKN015 BKN035
     FM220600 24005KT 3SM BR OVC009
      TEMPO 2212/2216 1SM BR OVC004=



000
FTUS46 KSEW 211700
TAFBFI
TAF
KBFI 211724Z 2118/2218 18010KT P6SM SCT015 BKN050 BKN100
      TEMPO 2118/2120 BKN015
     FM220200 17007KT P6SM BKN050
     FM220800 16005KT P6SM BKN025 OVC050=



000
FTUS46 KSEW 211600 AAA
TAFHQM
TAF AMD
KHQM 211652Z 2117/2212 26012KT P6SM SCT022 BKN050
      TEMPO 2117/2119 3SM -SHRA BR OVC022
     FM220800 28005KT P6SM BKN020 OVC050=



000
FTUS46 KSEW 211500 AAA
TAFBFI
TAF AMD
KBFI 211531Z 2116/2212 18010KT P6SM SCT015 BKN050 BKN100
      TEMPO 2116/2118 BKN015
     FM220800 16005KT P6SM BKN025 OVC050=



000
FTUS46 KSEW 211500 AAB
TAFSEA
TAF AMD
KSEA 211531Z 2116/2218 21012G22KT P6SM SCT012 BKN100
      TEMPO 2116/2118 BKN012
     FM211800 21014G22KT P6SM SCT022 BKN050 BKN100
     FM220200 19010KT P6SM OVC050
     FM220800 19008KT P6SM BKN020 OVC045=



000
FTUS46 KSEW 211400 AAA
TAFCLM
TAF AMD
KCLM 211403Z 2114/2212 29014G22KT P6SM VCSH BKN030 BKN050
     FM212100 28010KT P6SM SCT030 BKN050
     FM220200 26008KT P6SM BKN030 OVC060=



000
FTUS46 KSEW 211400 AAA
TAFCLM
TAF AMD
KCLM 211403Z 2114/2212 29014G22KT P6SM VCSH BKN030 BKN050
     FM212100 28010KT P6SM SCT030 BKN050
     FM220200 26008KT P6SM BKN030 OVC060=



000
FTUS46 KSEW 211400 AAA
TAFSEA
TAF AMD
KSEA 211402Z 2114/2218 22014G22KT P6SM SCT015 SCT050 BKN100
     FM211700 21014G22KT P6SM BKN050 BKN100
     FM220200 19010KT P6SM OVC050
     FM220800 19008KT P6SM BKN020 OVC045=



000
FTUS46 KSEW 211400 AAA
TAFSEA
TAF AMD
KSEA 211402Z 2114/2218 22014G22KT P6SM SCT015 SCT050 BKN100
     FM211700 21014G22KT P6SM BKN050 BKN100
     FM220200 19010KT P6SM OVC050
     FM220800 19008KT P6SM BKN020 OVC045=



000
FTUS46 KSEW 211300 AAA
TAFOLM
TAF AMD
KOLM 211321Z 2113/2212 25008KT P6SM BKN025 BKN040
     FM211600 24012KT 5SM -SHRA BR FEW010 BKN025 OVC040
     FM212100 24010KT P6SM BKN025 OVC040=



000
FTUS46 KSEW 211300 AAA
TAFOLM
TAF AMD
KOLM 211321Z 2113/2212 25008KT P6SM BKN025 BKN040
     FM211600 24012KT 5SM -SHRA BR FEW010 BKN025 OVC040
     FM212100 24010KT P6SM BKN025 OVC040=



000
FTUS46 KSEW 211300 AAA
TAFPAE
TAF AMD
KPAE 211319Z 2113/2212 VRB05KT P6SM BKN025 BKN040
      TEMPO 2113/2116 2SM RA BR BKN015 OVC025
     FM211800 25004KT P6SM SCT015 BKN050
      TEMPO 2118/2120 -SHRA BKN015 OVC050
     FM220000 21008KT P6SM SCT020 OVC045=



000
FTUS46 KSEW 211300 AAA
TAFPAE
TAF AMD
KPAE 211319Z 2113/2212 VRB05KT P6SM BKN025 BKN040
      TEMPO 2113/2116 2SM RA BR BKN015 OVC025
     FM211800 25004KT P6SM SCT015 BKN050
      TEMPO 2118/2120 -SHRA BKN015 OVC050
     FM220000 21008KT P6SM SCT020 OVC045=



000
FTUS46 KSEW 211100
TAFPAE
TAF
KPAE 211120Z 2112/2212 29005KT P6SM SCT050 BKN100
     FM211500 25004KT P6SM SCT015 BKN050
      TEMPO 2116/2120 -SHRA BKN015 OVC050
     FM220000 21008KT P6SM SCT020 OVC045=



000
FTUS46 KSEW 211100
TAFHQM
TAF
KHQM 211120Z 2112/2212 25012KT P6SM FEW020 OVC045
      TEMPO 2112/2116 5SM -SHRA BR BKN020 OVC045
     FM211700 23012KT P6SM SCT020 BKN050
     FM220800 28005KT P6SM BKN020 OVC050=



000
FTUS46 KSEW 211100
TAFBLI
TAF
KBLI 211120Z 2112/2212 17008KT P6SM FEW025 SCT080
     FM211800 18008KT P6SM SCT025 OVC060=



000
FTUS46 KSEW 211100
TAFCLM
TAF
KCLM 211120Z 2112/2212 28014G22KT P6SM BKN060 BKN090
     FM212100 28010KT P6SM SCT030 BKN050
     FM220200 26008KT P6SM BKN030 OVC060=



000
FTUS46 KSEW 211100
TAFOLM
TAF
KOLM 211120Z 2112/2212 25012G18KT P6SM FEW030 BKN120
     FM211600 24012KT 5SM -SHRA BR FEW010 BKN025 OVC040
     FM212100 24010KT P6SM BKN025 OVC040=



000
FTUS46 KSEW 211100
TAFBFI
TAF
KBFI 211120Z 2112/2212 20010G20KT P6SM SCT050 BKN100
     FM211600 18010KT P6SM BKN050 BKN100
     FM220800 16005KT P6SM BKN025 OVC050=



000
FTUS46 KSEW 211100
TAFSEA
TAF
KSEA 211120Z 2112/2218 22014G22KT P6SM SCT050 BKN100
     FM211700 21014G22KT P6SM BKN050 BKN100
     FM220200 19010KT P6SM OVC050
     FM220800 19008KT P6SM BKN020 OVC045=



000
FTUS46 KSEW 210900 AAA
TAFBFI
TAF AMD
KBFI 210917Z 2109/2206 22014G22KT P6SM FEW020 BKN100
      TEMPO 2112/2116 BKN020 OVC100
     FM211600 18012G18KT P6SM BKN030 OVC045
     FM212200 19010G19KT P6SM SCT030 OVC050=



000
FTUS46 KSEW 210900 AAA
TAFSEA
TAF AMD
KSEA 210916Z 2109/2212 22016G26KT P6SM FEW015 BKN100
      TEMPO 2112/2116 BKN015 OVC100
     FM211600 21014G22KT P6SM BKN025 OVC045
     FM212200 21012G18KT P6SM SCT025 OVC050
     FM220800 19010KT P6SM BKN020 OVC035=



000
FTUS46 KSEW 210500
TAFHQM
TAF
KHQM 210520Z 2106/2206 22020G30KT P6SM -SHRA SCT009 BKN017 OVC045
      TEMPO 2106/2109 4SM -SHRA BR BKN009 OVC017
     FM211000 23014G22KT P6SM -SHRA BKN015 OVC035
     FM211700 23012KT P6SM SCT020 BKN050=



000
FTUS46 KSEW 210500
TAFBLI
TAF
KBLI 210520Z 2106/2206 17012G22KT P6SM -RA BKN020 OVC035
     FM211200 19010KT P6SM BKN025 OVC060
     FM211800 18008KT P6SM SCT030 OVC060=



000
FTUS46 KSEW 210500
TAFSEA
TAF
KSEA 210520Z 2106/2212 20018G28KT P6SM BKN012 OVC025
     FM211700 21014G22KT P6SM BKN025 OVC045
     FM212200 21012G18KT P6SM SCT025 OVC050
     FM220800 19010KT P6SM BKN020 OVC035=



000
FTUS46 KSEW 210500
TAFOLM
TAF
KOLM 210520Z 2106/2206 21014G24KT 4SM -RA BR FEW010 BKN020 OVC035
     FM211600 24012KT 5SM -RA BR FEW010 BKN025 OVC040
     FM212100 24010KT P6SM BKN025 OVC040=



000
FTUS46 KSEW 210500
TAFBFI
TAF
KBFI 210520Z 2106/2206 19015G25KT P6SM BKN015 OVC030
     FM211700 18012G18KT P6SM BKN030 OVC045
     FM212200 19010G19KT P6SM SCT030 OVC050=



000
FTUS46 KSEW 210500
TAFCLM
TAF
KCLM 210520Z 2106/2206 28010KT P6SM -SHRA SCT020 OVC060
     FM211000 27015G25KT P6SM BKN020 OVC050
     FM212100 28010KT P6SM SCT030 OVC050=



000
FTUS46 KSEW 210500
TAFPAE
TAF
KPAE 210520Z 2106/2206 20015G25KT P6SM BKN012 OVC025
     FM211500 21012G18KT P6SM BKN015 OVC035
     FM212000 22010KT P6SM BKN025 OVC045=



000
FTUS46 KSEW 210200 AAB
TAFHQM
TAF AMD
KHQM 210208Z 2102/2124 22022G32KT 4SM -RA BR OVC009
     FM210400 23019G28KT 4SM -RA BR OVC007
     FM211500 23013KT 4SM -RA OVC015
     FM211700 23012KT P6SM VCSH OVC015
     FM212000 23013KT P6SM OVC025=



000
FTUS46 KSEW 210200 AAA
TAFCLM
TAF AMD
KCLM 210207Z 2102/2124 VRB03KT P6SM -RA SCT030 OVC050
     FM210400 25005KT 5SM -RA BR SCT011 OVC030
     FM210600 27007KT 5SM -RA BR SCT006 OVC015
     FM211200 27016G24KT P6SM -RA OVC015
     FM211600 27014G22KT P6SM VCSH OVC025
     FM212100 28011KT P6SM VCSH OVC050=



000
FTUS46 KSEW 210200 AAB
TAFSEA
TAF AMD
KSEA 210205Z 2102/2206 19013KT 6SM BR SCT009 OVC025
      TEMPO 2102/2104 19015G25KT 4SM -RA BR BKN009 OVC025
     FM210400 21018G26KT 6SM -RA OVC015
     FM211700 21015G22KT P6SM VCSH OVC025
     FM212200 21014G21KT P6SM VCSH SCT025 OVC045=



000
FTUS46 KSEW 210200 AAB
TAFPAE
TAF AMD
KPAE 210204Z 2102/2124 18013KT P6SM BKN005 OVC012
      TEMPO 2102/2105 18015G25KT 6SM BR
     FM210500 20019G27KT 6SM -RA OVC015
     FM211200 23011KT P6SM -RA OVC015
     FM211700 22011KT P6SM VCSH OVC015
     FM212200 23010KT P6SM VCSH OVC025=



000
FTUS46 KSEW 210200 AAB
TAFOLM
TAF AMD
KOLM 210203Z 2102/2124 19013KT 5SM -RA BR SCT007 OVC020
      TEMPO 2102/2106 2SM RA BR BKN007 OVC020
     FM210600 20018G27KT 2SM -RA BR OVC007
     FM211600 24012KT 4SM -RA BR OVC007
     FM212100 24009KT P6SM VCSH OVC025=



000
FTUS46 KSEW 210100 AAA
TAFSEA
TAF AMD
KSEA 210127Z 2101/2206 18013KT 6SM BR SCT015 OVC025
      TEMPO 2101/2103 18013G20KT 4SM -RA BR BKN015 OVC025
     FM210300 21018G26KT 6SM -RA OVC015
     FM211700 21015G22KT P6SM VCSH OVC025
     FM212200 21014G21KT P6SM VCSH SCT025 OVC045=



000
FTUS46 KSEW 210100 AAA
TAFPAE
TAF AMD
KPAE 210125Z 2101/2124 18013KT P6SM SCT006 OVC012
      TEMPO 2101/2105 6SM BR BKN006 OVC012
     FM210500 20019G27KT 6SM -RA OVC015
     FM211200 23011KT P6SM -RA OVC015
     FM211700 22011KT P6SM VCSH OVC015
     FM212200 23010KT P6SM VCSH OVC025=



000
FTUS46 KSEW 210000 AAA
TAFOLM
TAF AMD
KOLM 210026Z 2100/2124 18013KT 3SM RA BR BKN009 OVC016
     FM210200 19017G26KT 2SM -RA BR OVC012
     FM210600 20018G27KT 2SM -RA BR OVC007
     FM211600 24012KT 4SM -RA BR OVC007
     FM212100 24009KT P6SM VCSH OVC025=



000
FTUS46 KSEW 210000 AAA
TAFHQM
TAF AMD
KHQM 210025Z 2100/2124 20022G30KT 4SM -RA BR OVC006
     FM210400 23019G28KT 4SM -RA BR OVC007
     FM211500 23013KT 4SM -RA OVC015
     FM211700 23012KT P6SM VCSH OVC015
     FM212000 23013KT P6SM OVC025=



000
FTUS46 KSEW 202300
TAFHQM
TAF
KHQM 202324Z 2100/2124 20023G30KT 1SM RA BR OVC008
     FM210400 23019G28KT 4SM -RA BR OVC007
     FM211500 23013KT 4SM -RA OVC015
     FM211700 23012KT P6SM VCSH OVC015
     FM212000 23013KT P6SM OVC025=



000
FTUS46 KSEW 202300
TAFBFI
TAF
KBFI 202324Z 2100/2124 13008KT P6SM -RA OVC029
     FM210200 19013G21KT P6SM -RA OVC020
     FM211700 18012G18KT P6SM VCSH OVC030
     FM212200 19012G19KT P6SM VCSH SCT030 OVC050=



000
FTUS46 KSEW 202300
TAFOLM
TAF
KOLM 202324Z 2100/2124 19013KT 2SM -RA BR BKN011 OVC023
     FM210200 19017G26KT 2SM -RA BR OVC012
     FM210600 20018G27KT 2SM -RA BR OVC007
     FM211600 24012KT 4SM -RA BR OVC007
     FM212100 24009KT P6SM VCSH OVC025=



000
FTUS46 KSEW 202300
TAFBLI
TAF
KBLI 202324Z 2100/2124 14017G22KT 6SM -RA FEW025 BKN060 OVC080
     FM210100 16015G22KT 6SM -RA OVC015
     FM211600 19008KT P6SM -RA OVC025
     FM211800 19010KT P6SM VCSH OVC025=



000
FTUS46 KSEW 202300
TAFPAE
TAF
KPAE 202324Z 2100/2124 15007KT 2SM -RA BR BKN016 OVC021
     FM210300 20019G27KT 6SM -RA OVC015
     FM211200 23011KT P6SM -RA OVC015
     FM211700 22011KT P6SM VCSH OVC015
     FM212200 23010KT P6SM VCSH OVC025=



000
FTUS46 KSEW 202300
TAFCLM
TAF
KCLM 202324Z 2100/2124 10003KT P6SM -RA SCT050 BKN080 OVC100
     FM210300 27009KT P6SM -RA OVC015
     FM211200 27016G24KT P6SM -RA OVC015
     FM211600 27014G22KT P6SM VCSH OVC025
     FM212100 28011KT P6SM VCSH OVC050=



000
FTUS46 KSEW 202300
TAFSEA
TAF
KSEA 202324Z 2100/2206 14009KT 4SM -RA BR BKN025 OVC030
     FM210200 21018G26KT 6SM -RA OVC015
     FM211700 21015G22KT P6SM VCSH OVC025
     FM212200 21014G21KT P6SM VCSH SCT025 OVC045=



000
FTUS46 KSEW 202100 AAA
TAFOLM
TAF AMD
KOLM 202114Z 2021/2118 20014G20KT 2SM -RA BR OVC011
     FM210300 20015G23KT 2SM -RA BR OVC007
     FM210700 20018G26KT 2SM -RA BR OVC003
     FM210800 21017G25KT 2SM -RA BR OVC007
     FM211100 22016G24KT 4SM -RA BR OVC007
     FM211400 23013KT 4SM -RA BR OVC007
     FM211600 23011KT 1 1/2SM -RA BR OVC007=



000
FTUS46 KSEW 202100 AAA
TAFHQM
TAF AMD
KHQM 202113Z 2021/2118 20017KT 1SM -RA BR OVC006
     FM210400 21020G28KT 4SM -RA BR OVC007
     FM211100 23018G26KT 4SM -RA HZ BR OVC015
     FM211400 23015KT 4SM -RA OVC015
     FM211600 23013KT P6SM OVC015
      TEMPO 2116/2117 4SM -RA OVC015
     FM211700 23012KT 4SM BR OVC015 PROB30 2117/2118 4SM -RA OVC015=



000
FTUS46 KSEW 202100 AAA
TAFPAE
TAF AMD
KPAE 202112Z 2021/2118 15009G18KT P6SM SCT022 BKN026 OVC035
     FM202200 20015G25KT P6SM -RA BKN020 OVC040=



000
FTUS46 KSEW 202100 AAA
TAFSEA
TAF AMD
KSEA 202112Z 2021/2124 13009KT 5SM -RA BR BKN030 OVC060
     FM202200 20015G25KT P6SM -RA BKN020 OVC040
     FM211100 22012G20KT P6SM -SHRA BKN020 BKN040=



000
FTUS46 KSEW 202100 AAA
TAFBLI
TAF AMD
KBLI 202112Z 2021/2118 13012G22KT P6SM -RA BKN035 OVC060
     FM202200 20015G25KT P6SM -RA BKN020 OVC040=



000
FTUS46 KSEW 201700
TAFBLI
TAF
KBLI 201733Z 2018/2118 00000KT P6SM SCT025 OVC040
     FM202200 20015G25KT P6SM -RA BKN020 OVC040=



000
FTUS46 KSEW 201700
TAFBFI
TAF
KBFI 201733Z 2018/2118 00000KT P6SM BKN024 OVC030
      TEMPO 2018/2020 4SM -RA BR BKN025 OVC035
     FM202200 20012G22KT P6SM -RA BKN025 OVC040
     FM211100 22012KT P6SM -SHRA BKN025 BKN040=



000
FTUS46 KSEW 201700
TAFPAE
TAF
KPAE 201733Z 2018/2118 12008KT P6SM OVC045
     FM202200 20015G25KT P6SM -RA BKN020 OVC040=



000
FTUS46 KSEW 201700
TAFSEA
TAF
KSEA 201733Z 2018/2124 07009KT P6SM OVC026
      TEMPO 2018/2020 4SM -RA BR BKN020 OVC035
     FM202200 20015G25KT P6SM -RA BKN020 OVC040
     FM211100 22012G20KT P6SM -SHRA BKN020 BKN040=



000
FTUS46 KSEW 201700
TAFHQM
TAF
KHQM 201733Z 2018/2118 06009KT 2SM RA BR OVC014
     FM202000 21017G27KT 4SM -RA BR BKN015 OVC030=



000
FTUS46 KSEW 201700
TAFOLM
TAF
KOLM 201733Z 2018/2118 21007KT 4SM -RA BR OVC011
     FM202000 22015G25KT P6SM -RA BKN012 OVC025=



000
FTUS46 KSEW 201700
TAFCLM
TAF
KCLM 201733Z 2018/2118 23003KT P6SM FEW080 OVC120
     FM202200 27012KT P6SM -RA BKN020 OVC040=



000
FTUS46 KSEW 201400 AAA
TAFOLM
TAF AMD
KOLM 201438Z 2015/2112 17010KT P6SM -RA BKN025 OVC045
     FM201600 17012G22KT 5SM -RA BR OVC025
     FM202200 22015G25KT P6SM -RA BKN020 OVC040=



000
FTUS46 KSEW 201400 AAB
TAFHQM
TAF AMD
KHQM 201437Z 2015/2112 09012KT 3SM -RA BR BKN009 OVC012
     FM201600 18017G27KT 2SM -RA BR BKN007 OVC015
     FM202000 21017G27KT 6SM -RA BR BKN015 OVC030=



000
FTUS46 KSEW 201400 AAA
TAFHQM
TAF AMD
KHQM 201411Z 2014/2112 09012KT 3SM -RA BR OVC012
     FM201600 18017G27KT 2SM -RA BR BKN007 OVC015
     FM202000 21017G27KT 6SM -RA BR BKN015 OVC030=



000
FTUS46 KSEW 201400 AAA
TAFBLI
TAF AMD
KBLI 201407Z 2014/2112 13012G22KT P6SM -RA OVC040
     FM201800 15015G27KT 5SM -RA BR OVC025
     FM202200 20015G25KT P6SM -RA BKN020 OVC040=



000
FTUS46 KSEW 201400 AAA
TAFPAE
TAF AMD
KPAE 201404Z 2014/2112 15012G22KT P6SM -RA SCT025 OVC045
      TEMPO 2014/2017 4SM -RA BR OVC025
     FM201800 16014G24KT P6SM -RA OVC025
     FM202200 20015G25KT P6SM -RA BKN020 OVC040=



000
FTUS46 KSEW 201400 AAA
TAFSEA
TAF AMD
KSEA 201401Z 2014/2118 11009KT P6SM -RA OVC040
     FM201600 15012G22KT P6SM -RA SCT020 OVC035
      TEMPO 2016/2020 4SM -RA BR BKN020 OVC035
     FM202200 20015G25KT P6SM -RA BKN020 OVC040
     FM211100 22012G20KT P6SM -SHRA BKN020 BKN040=



000
FTUS46 KSEW 201100
TAFOLM
TAF
KOLM 201122Z 2012/2112 17010KT P6SM -RA OVC035
     FM201600 17012G22KT 5SM -RA BR OVC025
     FM202200 22015G25KT P6SM -RA BKN020 OVC040=



000
FTUS46 KSEW 201100
TAFSEA
TAF
KSEA 201122Z 2012/2118 14010KT P6SM -RA OVC035
     FM201600 15012G22KT P6SM -RA SCT020 OVC035
      TEMPO 2016/2020 4SM -RA BR BKN020 OVC035
     FM202200 20015G25KT P6SM -RA BKN020 OVC040
     FM211100 22012G20KT P6SM -SHRA BKN020 BKN040=



000
FTUS46 KSEW 201100
TAFCLM
TAF
KCLM 201122Z 2012/2112 VRB04KT P6SM -RA OVC050
     FM201600 09006KT 5SM -RA BR OVC025
     FM202200 27012KT P6SM -RA BKN020 OVC040=



000
FTUS46 KSEW 201100
TAFPAE
TAF
KPAE 201122Z 2012/2112 15012G22KT 5SM -RA BR OVC025
     FM202200 20015G25KT P6SM -RA BKN020 OVC040=



000
FTUS46 KSEW 201100
TAFBLI
TAF
KBLI 201122Z 2012/2112 14017G27KT P6SM -RA OVC040
     FM201600 15012G22KT 5SM -RA BR OVC025
     FM202200 20015G25KT P6SM -RA BKN020 OVC040=



000
FTUS46 KSEW 201100
TAFHQM
TAF
KHQM 201122Z 2012/2112 12012G22KT 5SM RA BR OVC020
     FM201600 16017G27KT 2SM RA BR BKN010 OVC030
     FM202000 22017G27KT P6SM -RA BKN015 OVC030=



000
FTUS46 KSEW 201100
TAFBFI
TAF
KBFI 201122Z 2012/2112 14007KT P6SM -RA OVC040
     FM201600 15010G20KT P6SM -RA SCT025 OVC040
      TEMPO 2016/2020 5SM -RA BR BKN025 OVC035
     FM202200 20012G22KT P6SM -RA BKN025 OVC040
     FM211100 22012KT P6SM -SHRA BKN025 BKN040=



000
FTUS46 KSEW 200500
TAFHQM
TAF
KHQM 200520Z 2006/2106 06010KT P6SM SCT050 OVC100
     FM201000 12017G27KT 4SM -RA BR OVC025
     FM202000 17022G32KT 2SM -RA BR OVC015=



000
FTUS46 KSEW 200500
TAFPAE
TAF
KPAE 200520Z 2006/2106 15012KT P6SM BKN060 OVC100
     FM200800 15012G22KT P6SM -RA OVC040
     FM201600 15015G25KT P6SM -RA OVC020
     FM202000 17018G26KT 2SM -RA BR OVC015=



000
FTUS46 KSEW 200500
TAFSEA
TAF
KSEA 200520Z 2006/2112 13008KT P6SM SCT050 OVC100
     FM200800 14010KT P6SM -RA SCT025 OVC045
     FM201600 15012KT P6SM -RA OVC025
     FM201900 16015G23KT 4SM -RA BR OVC025=



000
FTUS46 KSEW 200500
TAFBFI
TAF
KBFI 200520Z 2006/2106 15007KT P6SM SCT050 OVC100
     FM200800 15007KT P6SM -RA SCT030 OVC050
     FM201600 15007KT P6SM -RA OVC030
     FM201900 16011G20KT 5SM -RA BR OVC030=



000
FTUS46 KSEW 200500
TAFCLM
TAF
KCLM 200520Z 2006/2106 21006KT P6SM SCT050 OVC100
     FM201200 VRB04KT 4SM -RA BR OVC015=



000
FTUS46 KSEW 200500
TAFOLM
TAF
KOLM 200520Z 2006/2106 19008KT P6SM SCT050 OVC100
     FM200900 18008KT 4SM -RA BR SCT025 OVC050
     FM201500 19012G20KT 4SM -RA BR OVC015=



000
FTUS46 KSEW 200500
TAFBLI
TAF
KBLI 200520Z 2006/2106 14017G25KT P6SM SCT050 OVC100
     FM200800 15012KT P6SM -RA SCT025 OVC050
     FM201700 15015G25KT 6SM -RA OVC025=



000
FTUS46 KSEW 200200 AAA
TAFCLM
TAF AMD
KCLM 200213Z 2002/2024 00000KT P6SM SCT050 OVC100
      TEMPO 2002/2006 2SM BR
     FM200600 09004KT P6SM -RA OVC050
     FM201800 VRB04KT 4SM -RA BR OVC015=



000
FTUS46 KSEW 200200 AAA
TAFHQM
TAF AMD
KHQM 200203Z 2002/2024 09010KT P6SM SCT025 BKN070 OVC120
     FM200300 09010KT P6SM SCT025 OVC050
     FM200500 11014KT P6SM -RA SCT025 OVC050
     FM201000 12019G27KT 4SM -RA BR OVC025
     FM202000 17023G32KT 2SM -RA BR OVC015=



000
FTUS46 KSEW 200100 AAA
TAFPAE
TAF AMD
KPAE 200155Z 2002/2024 15012KT P6SM SCT030 OVC045
      TEMPO 2002/2005 BKN030 OVC045
     FM200500 15012KT P6SM BKN025 OVC040
     FM200800 15012KT P6SM -RA OVC025
     FM201600 15014G22KT P6SM -RA OVC020
     FM202000 17018G26KT 2SM -RA BR OVC015=



000
FTUS46 KSEW 200100 AAA
TAFPAE
TAF AMD
KPAE 200155Z 2002/2024 15012KT P6SM SCT030 OVC045
      TEMPO 2002/2005 BKN030 OVC045
     FM200500 15012KT P6SM BKN025 OVC040
     FM200800 15012KT P6SM -RA OVC025
     FM201600 15014G22KT P6SM -RA OVC020
     FM202000 17018G26KT 2SM -RA BR OVC015=



000
FTUS46 KSEW 192300
TAFBFI
TAF
KBFI 192331Z 2000/2024 17007KT P6SM SCT028 BKN060
     FM200100 15007KT P6SM SCT050 OVC100
     FM200300 15006KT P6SM OVC050
     FM200700 15006KT P6SM -RA SCT030 OVC050
     FM201600 15007KT P6SM -RA OVC030
     FM201900 16011G20KT 5SM -RA BR OVC030=



000
FTUS46 KSEW 192300
TAFOLM
TAF
KOLM 192331Z 2000/2024 18012G19KT P6SM FEW045 BKN080 OVC110
     FM200100 18008KT P6SM OVC050
     FM200700 18008KT 4SM -RA BR SCT025 OVC050
     FM201500 19011G20KT 4SM -RA BR OVC015=



000
FTUS46 KSEW 192300
TAFPAE
TAF
KPAE 192331Z 2000/2024 18013G20KT P6SM FEW029 SCT045 OVC070
     FM200100 17012KT P6SM OVC100
     FM200500 15012KT P6SM OVC050
     FM200800 15012KT P6SM -RA SCT020 OVC040
     FM201600 15014G22KT P6SM -RA OVC020
     FM202000 17018G26KT 2SM -RA BR OVC015=



000
FTUS46 KSEW 192300
TAFHQM
TAF
KHQM 192331Z 2000/2024 13013KT P6SM OVC100
     FM200300 13012KT P6SM OVC050
     FM200500 12014KT P6SM -RA SCT025 OVC050
     FM201000 12019G27KT 4SM -RA BR OVC025
     FM202000 17023G32KT 2SM -RA BR OVC015=



000
FTUS46 KSEW 192300
TAFSEA
TAF
KSEA 192331Z 2000/2106 19009KT P6SM SCT035 BKN050 BKN250
     FM200100 17009KT P6SM SCT045 OVC100
     FM200300 16009KT P6SM OVC045
     FM200700 14010KT P6SM -RA SCT025 OVC045
     FM201600 15012KT P6SM -RA OVC025
     FM201900 16015G23KT 4SM -RA BR OVC025=



000
FTUS46 KSEW 192300
TAFBLI
TAF
KBLI 192331Z 2000/2024 14012KT P6SM OVC090
     FM200700 15011KT P6SM OVC050
     FM200800 14012KT P6SM -RA SCT025 OVC050
     FM201700 13016G23KT 6SM -RA OVC025=



000
FTUS46 KSEW 192300
TAFCLM
TAF
KCLM 192331Z 2000/2024 27005KT P6SM BKN045 BKN070 BKN100
     FM200100 18002KT P6SM SCT050 OVC100
     FM200300 VRB03KT P6SM OVC050
     FM200600 20002KT P6SM -RA OVC050
     FM201800 00000KT 4SM -RA BR OVC015=



000
FTUS46 KSEW 192100 AAA
TAFSEA
TAF AMD
KSEA 192111Z 1921/2024 20011G16KT P6SM VCSH SCT025 SCT050 BKN250
     FM200700 15010KT P6SM -RA OVC040=



000
FTUS46 KSEW 191700
TAFHQM
TAF
KHQM 191720Z 1918/2018 08008KT 6SM BR VCSH SCT070
     FM200400 16012G22KT 5SM -RA BR OVC020
     FM200800 16017G27KT 4SM RA BR OVC015=



000
FTUS46 KSEW 191700
TAFBLI
TAF
KBLI 191720Z 1918/2018 17006KT P6SM VCSH FEW022 OVC035
     FM200800 15015G25KT P6SM -RA OVC025=



000
FTUS46 KSEW 191700
TAFOLM
TAF
KOLM 191720Z 1918/2018 19007KT P6SM VCSH SCT040 BKN060
     FM200600 15008KT P6SM -RA OVC040=



000
FTUS46 KSEW 191700
TAFSEA
TAF
KSEA 191720Z 1918/2024 18008KT P6SM VCSH BKN035 BKN050 BKN180
     FM200700 15010KT P6SM -RA OVC040=



000
FTUS46 KSEW 191700
TAFBFI
TAF
KBFI 191720Z 1918/2018 16007KT P6SM VCSH BKN040 BKN060
     FM200700 15008KT P6SM -RA OVC045=



000
FTUS46 KSEW 191700
TAFPAE
TAF
KPAE 191720Z 1918/2018 18013G19KT P6SM VCSH SCT005 SCT012 BKN024
     FM191900 18012G20KT P6SM VCSH SCT025 BKN040
     FM200700 15015G25KT P6SM -RA OVC025=



000
FTUS46 KSEW 191700
TAFCLM
TAF
KCLM 191720Z 1918/2018 VRB03KT P6SM VCSH SCT040 BKN120
     FM200500 09006KT P6SM -RA OVC025=



000
FTUS46 KSEW 191400 AAA
TAFHQM
TAF AMD
KHQM 191412Z 1914/2012 18008KT P6SM SCT015 BKN025 OVC050
      TEMPO 1914/1918 5SM -SHRA BR BKN015 BKN025 OVC050
     FM191800 18012KT P6SM VCSH SCT025 BKN050
     FM200400 16012G22KT 5SM -RA BR OVC020
     FM200800 16017G27KT 4SM RA BR OVC015=



000
FTUS46 KSEW 191400 AAA
TAFBLI
TAF AMD
KBLI 191410Z 1914/2012 17014KT P6SM VCSH SCT025 OVC040
      TEMPO 1914/1918 -SHRA BKN025 OVC040
     FM201000 15015G25KT P6SM -RA OVC025=



000
FTUS46 KSEW 191400 AAA
TAFPAE
TAF AMD
KPAE 191409Z 1914/2012 17014KT P6SM VCSH SCT025 OVC040
      TEMPO 1914/1918 -SHRA BKN025 OVC040
     FM201000 15015G25KT P6SM -RA OVC025=



000
FTUS46 KSEW 191400 AAA
TAFSEA
TAF AMD
KSEA 191407Z 1914/2018 18008KT P6SM VCSH SCT020 BKN045
     FM200000 18008KT P6SM SCT045 BKN100
     FM200700 15010KT P6SM -RA OVC040=



000
FTUS46 KSEW 191100
TAFOLM
TAF
KOLM 191120Z 1912/2012 19008KT P6SM VCSH SCT020 BKN040
     FM201000 15008KT P6SM -RA OVC040=



000
FTUS46 KSEW 191100
TAFBFI
TAF
KBFI 191120Z 1912/2012 17007KT P6SM VCSH SCT020 BKN040
     FM201000 15008KT P6SM -RA OVC040=



000
FTUS46 KSEW 191100
TAFBLI
TAF
KBLI 191120Z 1912/2012 17014KT P6SM VCSH BKN025 OVC040
     FM201000 15015G25KT P6SM -RA OVC025=



000
FTUS46 KSEW 191100
TAFHQM
TAF
KHQM 191120Z 1912/2012 16012KT P6SM SCT025 OVC040
      TEMPO 1912/1916 5SM -SHRA BR BKN025 OVC040
     FM191800 18010KT P6SM VCSH SCT020 BKN035
     FM200400 16012G22KT 5SM -RA BR OVC020
     FM200800 16017G27KT 4SM RA BR OVC015=



000
FTUS46 KSEW 191100
TAFCLM
TAF
KCLM 191120Z 1912/2012 VRB04KT P6SM VCSH SCT030 BKN050
     FM200700 09006KT P6SM -RA OVC025=



000
FTUS46 KSEW 191100
TAFPAE
TAF
KPAE 191120Z 1912/2012 17014KT P6SM VCSH BKN025 OVC040
     FM201000 15015G25KT P6SM -RA OVC025=



000
FTUS46 KSEW 191100
TAFSEA
TAF
KSEA 191120Z 1912/2018 18008KT P6SM VCSH SCT020 BKN040
     FM201000 15010KT P6SM -RA OVC040=



000
FTUS46 KSEW 190900 AAB
TAFSEA
TAF AMD
KSEA 190902Z 1909/2012 16010KT P6SM -RA SCT015 OVC040
      TEMPO 1909/1911 5SM -RA BR BKN015 OVC040
     FM191100 18012G18KT P6SM -SHRA BKN020 BKN035
     FM192000 20010KT P6SM VCSH SCT020 BKN035=



000
FTUS46 KSEW 190700 AAA
TAFSEA
TAF AMD
KSEA 190733Z 1908/2012 18010KT P6SM -RA SCT007 OVC020
      TEMPO 1908/1911 5SM -RA BR BKN007 OVC015
     FM191100 18012G18KT P6SM -SHRA BKN020 BKN035
     FM192000 20010KT P6SM VCSH SCT020 BKN035=



000
FTUS46 KSEW 190500
TAFPAE
TAF
KPAE 190520Z 1906/2006 12012KT P6SM -RA OVC050
     FM190900 18015G25KT P6SM -SHRA SCT025 BKN035
     FM191600 18010KT P6SM VCSH SCT025 BKN035=



000
FTUS46 KSEW 190500
TAFHQM
TAF
KHQM 190520Z 1906/2006 16012KT 5SM -RA BR OVC030
     FM191400 18010KT P6SM VCSH SCT020 BKN035=



000
FTUS46 KSEW 190500
TAFCLM
TAF
KCLM 190520Z 1906/2006 29008KT P6SM -RA OVC050
     FM190900 25005KT P6SM VCSH SCT035 BKN050=



000
FTUS46 KSEW 190500
TAFOLM
TAF
KOLM 190520Z 1906/2006 18010KT 5SM -RA OVC050
     FM190800 20010G18KT P6SM -SHRA SCT015 BKN025 BKN035
     FM191200 20006KT P6SM VCSH SCT025 BKN035=



000
FTUS46 KSEW 190500
TAFBFI
TAF
KBFI 190520Z 1906/2006 14008KT P6SM -RA OVC050
     FM190900 18010G18KT P6SM -SHRA BKN025 BKN040
     FM192000 18008KT P6SM VCSH SCT020 BKN035=



000
FTUS46 KSEW 190500
TAFSEA
TAF
KSEA 190520Z 1906/2012 16012KT P6SM -RA OVC040
     FM190900 18012G18KT P6SM -SHRA BKN020 BKN035
     FM192000 20010KT P6SM VCSH SCT020 BKN035=



000
FTUS46 KSEW 190500
TAFBLI
TAF
KBLI 190520Z 1906/2006 13015G28KT P6SM -RA OVC050
     FM190900 17010KT P6SM VCSH BKN025 BKN035=



    US Dept of Commerce
    National Oceanic and Atmospheric Administration
    National Weather Service
    1325 East West Highway
    Silver Spring, MD 20910
    Page Author: NWS Internet Services Team
Disclaimer
Information Quality
Credits
Glossary
Privacy Policy
Freedom of Information Act (FOIA)
About Us
Career Opportunities